sensor_id;sensor_type;location;lat;lon;timestamp;P1;durP1;ratioP1;P2;durP2;ratioP2
6207;SDS011;3137;51.550;7.060;2022-08-16T00:02:30;5.23;;;5.03;;
6207;SDS011;3137;51.550;7.060;2022-08-16T00:04:57;5.40;;;5.40;;
6207;SDS011;3137;51.550;7.060;2022-08-16T00:07:25;5.67;;;5.40;;
6207;SDS011;3137;51.550;7.060;2022-08-16T00:09:55;5.47;;;5.10;;
6207;SDS011;3137;51.550;7.060;2022-08-16T00:12:22;7.03;;;4.73;;
6207;SDS011;3137;51.550;7.060;2022-08-16T00:14:49;5.33;;;5.23;;
6207;SDS011;3137;51.550;7.060;2022-08-16T00:17:21;4.93;;;4.93;;
6207;SDS011;3137;51.550;7.060;2022-08-16T00:19:48;4.53;;;4.53;;
6207;SDS011;3137;51.550;7.060;2022-08-16T00:22:20;5.00;;;5.00;;
6207;SDS011;3137;51.550;7.060;2022-08-16T00:24:50;4.00;;;4.00;;
6207;SDS011;3137;51.550;7.060;2022-08-16T00:27:20;6.73;;;5.00;;
6207;SDS011;3137;51.550;7.060;2022-08-16T00:29:47;6.13;;;5.40;;
6207;SDS011;3137;51.550;7.060;2022-08-16T00:32:27;4.83;;;4.73;;
6207;SDS011;3137;51.550;7.060;2022-08-16T00:34:58;5.30;;;5.10;;
6207;SDS011;3137;51.550;7.060;2022-08-16T00:37:26;5.57;;;5.17;;
6207;SDS011;3137;51.550;7.060;2022-08-16T00:40:14;5.30;;;5.20;;
6207;SDS011;3137;51.550;7.060;2022-08-16T00:43:00;5.50;;;5.07;;
6207;SDS011;3137;51.550;7.060;2022-08-16T00:45:49;6.03;;;5.57;;
6207;SDS011;3137;51.550;7.060;2022-08-16T00:48:26;6.20;;;5.67;;
6207;SDS011;3137;51.550;7.060;2022-08-16T00:50:56;5.10;;;5.10;;
6207;SDS011;3137;51.550;7.060;2022-08-16T00:53:24;6.07;;;5.80;;
6207;SDS011;3137;51.550;7.060;2022-08-16T00:55:56;5.70;;;5.60;;
6207;SDS011;3137;51.550;7.060;2022-08-16T00:58:24;5.20;;;4.90;;
6207;SDS011;3137;51.550;7.060;2022-08-16T01:01:00;6.07;;;5.87;;
6207;SDS011;3137;51.550;7.060;2022-08-16T01:03:27;5.30;;;5.20;;
6207;SDS011;3137;51.550;7.060;2022-08-16T01:06:00;5.67;;;5.50;;
6207;SDS011;3137;51.550;7.060;2022-08-16T01:08:49;5.00;;;4.80;;
6207;SDS011;3137;51.550;7.060;2022-08-16T01:11:17;8.07;;;5.20;;
6207;SDS011;3137;51.550;7.060;2022-08-16T01:13:45;6.17;;;5.87;;
6207;SDS011;3137;51.550;7.060;2022-08-16T01:16:19;5.03;;;4.93;;
6207;SDS011;3137;51.550;7.060;2022-08-16T01:18:59;5.60;;;5.60;;
6207;SDS011;3137;51.550;7.060;2022-08-16T01:25:16;5.40;;;5.40;;
6207;SDS011;3137;51.550;7.060;2022-08-16T01:27:48;5.33;;;5.23;;
6207;SDS011;3137;51.550;7.060;2022-08-16T01:32:53;5.20;;;5.10;;
6207;SDS011;3137;51.550;7.060;2022-08-16T01:35:41;5.30;;;5.07;;
6207;SDS011;3137;51.550;7.060;2022-08-16T01:38:17;5.83;;;5.67;;
6207;SDS011;3137;51.550;7.060;2022-08-16T01:40:48;4.80;;;4.70;;
6207;SDS011;3137;51.550;7.060;2022-08-16T01:43:17;5.70;;;5.50;;
6207;SDS011;3137;51.550;7.060;2022-08-16T01:45:51;5.50;;;5.10;;
6207;SDS011;3137;51.550;7.060;2022-08-16T01:48:26;5.60;;;5.23;;
6207;SDS011;3137;51.550;7.060;2022-08-16T01:50:56;6.33;;;6.10;;
6207;SDS011;3137;51.550;7.060;2022-08-16T01:53:41;5.67;;;5.57;;
6207;SDS011;3137;51.550;7.060;2022-08-16T01:56:15;5.50;;;5.40;;
6207;SDS011;3137;51.550;7.060;2022-08-16T01:58:52;5.00;;;5.00;;
6207;SDS011;3137;51.550;7.060;2022-08-16T02:01:21;5.57;;;5.27;;
6207;SDS011;3137;51.550;7.060;2022-08-16T02:03:51;5.87;;;5.57;;
6207;SDS011;3137;51.550;7.060;2022-08-16T02:06:18;4.30;;;4.20;;
6207;SDS011;3137;51.550;7.060;2022-08-16T02:09:01;5.27;;;4.93;;
6207;SDS011;3137;51.550;7.060;2022-08-16T02:11:30;5.87;;;5.47;;
6207;SDS011;3137;51.550;7.060;2022-08-16T02:14:14;4.63;;;4.53;;
6207;SDS011;3137;51.550;7.060;2022-08-16T02:16:47;5.07;;;4.87;;
6207;SDS011;3137;51.550;7.060;2022-08-16T02:19:14;5.70;;;5.50;;
6207;SDS011;3137;51.550;7.060;2022-08-16T02:21:44;5.00;;;4.90;;
6207;SDS011;3137;51.550;7.060;2022-08-16T02:24:36;4.87;;;4.57;;
6207;SDS011;3137;51.550;7.060;2022-08-16T02:27:06;4.77;;;4.67;;
6207;SDS011;3137;51.550;7.060;2022-08-16T02:29:33;5.43;;;5.13;;
6207;SDS011;3137;51.550;7.060;2022-08-16T02:32:00;4.80;;;4.80;;
6207;SDS011;3137;51.550;7.060;2022-08-16T02:34:47;5.37;;;5.00;;
6207;SDS011;3137;51.550;7.060;2022-08-16T02:37:15;5.03;;;5.03;;
6207;SDS011;3137;51.550;7.060;2022-08-16T02:39:46;4.70;;;4.60;;
6207;SDS011;3137;51.550;7.060;2022-08-16T02:42:19;4.93;;;4.83;;
6207;SDS011;3137;51.550;7.060;2022-08-16T02:44:46;5.47;;;5.37;;
6207;SDS011;3137;51.550;7.060;2022-08-16T02:47:14;6.33;;;6.07;;
6207;SDS011;3137;51.550;7.060;2022-08-16T02:49:51;4.83;;;4.73;;
6207;SDS011;3137;51.550;7.060;2022-08-16T02:52:38;5.33;;;5.07;;
6207;SDS011;3137;51.550;7.060;2022-08-16T02:55:09;5.00;;;4.97;;
6207;SDS011;3137;51.550;7.060;2022-08-16T02:57:40;5.90;;;5.67;;
6207;SDS011;3137;51.550;7.060;2022-08-16T03:00:18;5.23;;;5.00;;
6207;SDS011;3137;51.550;7.060;2022-08-16T03:03:01;4.53;;;4.43;;
6207;SDS011;3137;51.550;7.060;2022-08-16T03:05:28;5.93;;;5.27;;
6207;SDS011;3137;51.550;7.060;2022-08-16T03:07:58;5.37;;;5.00;;
6207;SDS011;3137;51.550;7.060;2022-08-16T03:10:26;5.83;;;5.50;;
6207;SDS011;3137;51.550;7.060;2022-08-16T03:12:59;5.10;;;4.90;;
6207;SDS011;3137;51.550;7.060;2022-08-16T03:15:27;5.00;;;4.80;;
6207;SDS011;3137;51.550;7.060;2022-08-16T03:17:54;5.17;;;5.07;;
6207;SDS011;3137;51.550;7.060;2022-08-16T03:20:23;4.97;;;4.80;;
6207;SDS011;3137;51.550;7.060;2022-08-16T03:22:59;4.83;;;4.63;;
6207;SDS011;3137;51.550;7.060;2022-08-16T03:25:27;4.53;;;4.50;;
6207;SDS011;3137;51.550;7.060;2022-08-16T03:28:09;5.10;;;4.90;;
6207;SDS011;3137;51.550;7.060;2022-08-16T03:30:36;5.77;;;5.27;;
6207;SDS011;3137;51.550;7.060;2022-08-16T03:33:05;4.40;;;4.40;;
6207;SDS011;3137;51.550;7.060;2022-08-16T03:35:39;5.47;;;5.10;;
6207;SDS011;3137;51.550;7.060;2022-08-16T03:38:15;5.20;;;4.87;;
6207;SDS011;3137;51.550;7.060;2022-08-16T03:41:08;5.50;;;5.50;;
6207;SDS011;3137;51.550;7.060;2022-08-16T03:43:53;5.33;;;5.17;;
6207;SDS011;3137;51.550;7.060;2022-08-16T03:46:23;5.67;;;5.57;;
6207;SDS011;3137;51.550;7.060;2022-08-16T03:49:12;4.70;;;4.60;;
6207;SDS011;3137;51.550;7.060;2022-08-16T03:51:42;4.87;;;4.77;;
6207;SDS011;3137;51.550;7.060;2022-08-16T03:54:15;5.73;;;5.50;;
6207;SDS011;3137;51.550;7.060;2022-08-16T03:56:43;5.57;;;5.47;;
6207;SDS011;3137;51.550;7.060;2022-08-16T03:59:28;5.13;;;5.03;;
6207;SDS011;3137;51.550;7.060;2022-08-16T04:01:59;6.80;;;6.33;;
6207;SDS011;3137;51.550;7.060;2022-08-16T04:04:28;5.67;;;5.33;;
6207;SDS011;3137;51.550;7.060;2022-08-16T04:07:01;6.50;;;6.37;;
6207;SDS011;3137;51.550;7.060;2022-08-16T04:09:32;5.73;;;5.53;;
6207;SDS011;3137;51.550;7.060;2022-08-16T04:12:02;5.43;;;5.33;;
6207;SDS011;3137;51.550;7.060;2022-08-16T04:14:36;5.93;;;5.83;;
6207;SDS011;3137;51.550;7.060;2022-08-16T04:17:12;6.70;;;6.30;;
6207;SDS011;3137;51.550;7.060;2022-08-16T04:19:41;5.67;;;5.37;;
6207;SDS011;3137;51.550;7.060;2022-08-16T04:22:14;5.77;;;5.43;;
6207;SDS011;3137;51.550;7.060;2022-08-16T04:24:49;8.40;;;6.17;;
6207;SDS011;3137;51.550;7.060;2022-08-16T04:27:22;8.00;;;6.03;;
6207;SDS011;3137;51.550;7.060;2022-08-16T04:29:54;6.43;;;6.23;;
6207;SDS011;3137;51.550;7.060;2022-08-16T04:32:29;7.23;;;6.93;;
6207;SDS011;3137;51.550;7.060;2022-08-16T04:34:56;5.90;;;5.80;;
6207;SDS011;3137;51.550;7.060;2022-08-16T04:37:22;5.60;;;5.30;;
6207;SDS011;3137;51.550;7.060;2022-08-16T04:39:56;5.63;;;5.53;;
6207;SDS011;3137;51.550;7.060;2022-08-16T04:42:23;7.80;;;6.57;;
6207;SDS011;3137;51.550;7.060;2022-08-16T04:44:55;6.50;;;6.03;;
6207;SDS011;3137;51.550;7.060;2022-08-16T04:47:27;7.60;;;6.07;;
6207;SDS011;3137;51.550;7.060;2022-08-16T04:50:06;6.50;;;6.30;;
6207;SDS011;3137;51.550;7.060;2022-08-16T04:52:33;10.43;;;6.13;;
6207;SDS011;3137;51.550;7.060;2022-08-16T04:55:15;7.20;;;6.73;;
6207;SDS011;3137;51.550;7.060;2022-08-16T04:57:45;8.10;;;7.90;;
6207;SDS011;3137;51.550;7.060;2022-08-16T05:00:21;6.83;;;6.50;;
6207;SDS011;3137;51.550;7.060;2022-08-16T05:02:57;6.70;;;6.10;;
6207;SDS011;3137;51.550;7.060;2022-08-16T05:05:26;7.10;;;6.80;;
6207;SDS011;3137;51.550;7.060;2022-08-16T05:08:12;7.07;;;6.53;;
6207;SDS011;3137;51.550;7.060;2022-08-16T05:11:10;7.67;;;7.37;;
6207;SDS011;3137;51.550;7.060;2022-08-16T05:13:38;5.80;;;5.70;;
6207;SDS011;3137;51.550;7.060;2022-08-16T05:16:12;7.23;;;6.50;;
6207;SDS011;3137;51.550;7.060;2022-08-16T05:18:46;6.60;;;6.30;;
6207;SDS011;3137;51.550;7.060;2022-08-16T05:21:13;8.70;;;6.73;;
6207;SDS011;3137;51.550;7.060;2022-08-16T05:23:44;7.33;;;6.83;;
6207;SDS011;3137;51.550;7.060;2022-08-16T05:26:23;8.43;;;6.40;;
6207;SDS011;3137;51.550;7.060;2022-08-16T05:28:53;6.23;;;5.87;;
6207;SDS011;3137;51.550;7.060;2022-08-16T05:31:23;6.77;;;6.57;;
6207;SDS011;3137;51.550;7.060;2022-08-16T05:34:00;7.37;;;7.00;;
6207;SDS011;3137;51.550;7.060;2022-08-16T05:36:31;6.63;;;6.43;;
6207;SDS011;3137;51.550;7.060;2022-08-16T05:39:01;6.77;;;6.57;;
6207;SDS011;3137;51.550;7.060;2022-08-16T05:41:28;6.30;;;6.20;;
6207;SDS011;3137;51.550;7.060;2022-08-16T05:43:55;6.53;;;6.23;;
6207;SDS011;3137;51.550;7.060;2022-08-16T05:46:36;11.43;;;5.87;;
6207;SDS011;3137;51.550;7.060;2022-08-16T05:49:14;8.27;;;5.50;;
6207;SDS011;3137;51.550;7.060;2022-08-16T05:51:49;11.77;;;6.83;;
6207;SDS011;3137;51.550;7.060;2022-08-16T05:54:17;6.67;;;6.57;;
6207;SDS011;3137;51.550;7.060;2022-08-16T05:56:54;5.97;;;5.73;;
6207;SDS011;3137;51.550;7.060;2022-08-16T05:59:21;6.03;;;5.93;;
6207;SDS011;3137;51.550;7.060;2022-08-16T06:01:48;5.33;;;5.20;;
6207;SDS011;3137;51.550;7.060;2022-08-16T06:04:21;6.57;;;6.27;;
6207;SDS011;3137;51.550;7.060;2022-08-16T06:07:02;6.50;;;5.83;;
6207;SDS011;3137;51.550;7.060;2022-08-16T06:09:36;5.50;;;5.13;;
6207;SDS011;3137;51.550;7.060;2022-08-16T06:12:13;5.30;;;5.20;;
6207;SDS011;3137;51.550;7.060;2022-08-16T06:14:57;9.83;;;6.40;;
6207;SDS011;3137;51.550;7.060;2022-08-16T06:17:27;6.30;;;6.17;;
6207;SDS011;3137;51.550;7.060;2022-08-16T06:20:30;5.90;;;5.70;;
6207;SDS011;3137;51.550;7.060;2022-08-16T06:23:07;5.93;;;5.63;;
6207;SDS011;3137;51.550;7.060;2022-08-16T06:26:03;6.80;;;6.10;;
6207;SDS011;3137;51.550;7.060;2022-08-16T06:28:35;6.40;;;6.00;;
6207;SDS011;3137;51.550;7.060;2022-08-16T06:31:08;6.50;;;6.30;;
6207;SDS011;3137;51.550;7.060;2022-08-16T06:33:38;6.80;;;6.43;;
6207;SDS011;3137;51.550;7.060;2022-08-16T06:36:07;10.70;;;5.70;;
6207;SDS011;3137;51.550;7.060;2022-08-16T06:38:34;6.87;;;6.37;;
6207;SDS011;3137;51.550;7.060;2022-08-16T06:41:12;6.57;;;6.47;;
6207;SDS011;3137;51.550;7.060;2022-08-16T06:43:41;7.60;;;7.20;;
6207;SDS011;3137;51.550;7.060;2022-08-16T06:46:21;6.73;;;6.27;;
6207;SDS011;3137;51.550;7.060;2022-08-16T06:48:58;6.37;;;6.27;;
6207;SDS011;3137;51.550;7.060;2022-08-16T06:51:26;7.07;;;6.90;;
6207;SDS011;3137;51.550;7.060;2022-08-16T06:54:13;6.90;;;6.20;;
6207;SDS011;3137;51.550;7.060;2022-08-16T06:56:39;41.27;;;10.00;;
6207;SDS011;3137;51.550;7.060;2022-08-16T06:59:11;8.97;;;6.87;;
6207;SDS011;3137;51.550;7.060;2022-08-16T07:01:46;7.80;;;7.33;;
6207;SDS011;3137;51.550;7.060;2022-08-16T07:04:21;8.53;;;7.87;;
6207;SDS011;3137;51.550;7.060;2022-08-16T07:07:11;7.00;;;6.60;;
6207;SDS011;3137;51.550;7.060;2022-08-16T07:09:40;6.57;;;6.23;;
6207;SDS011;3137;51.550;7.060;2022-08-16T07:12:08;6.93;;;6.43;;
6207;SDS011;3137;51.550;7.060;2022-08-16T07:14:38;5.90;;;5.40;;
6207;SDS011;3137;51.550;7.060;2022-08-16T07:17:07;5.97;;;5.77;;
6207;SDS011;3137;51.550;7.060;2022-08-16T07:19:43;7.27;;;6.50;;
6207;SDS011;3137;51.550;7.060;2022-08-16T07:22:39;6.83;;;5.70;;
6207;SDS011;3137;51.550;7.060;2022-08-16T07:25:21;6.17;;;5.77;;
6207;SDS011;3137;51.550;7.060;2022-08-16T07:27:49;6.40;;;6.30;;
6207;SDS011;3137;51.550;7.060;2022-08-16T07:30:19;6.50;;;6.40;;
6207;SDS011;3137;51.550;7.060;2022-08-16T07:33:07;6.90;;;6.30;;
6207;SDS011;3137;51.550;7.060;2022-08-16T07:35:41;6.73;;;6.23;;
6207;SDS011;3137;51.550;7.060;2022-08-16T07:38:11;6.73;;;6.33;;
6207;SDS011;3137;51.550;7.060;2022-08-16T07:40:50;6.77;;;6.30;;
6207;SDS011;3137;51.550;7.060;2022-08-16T07:43:29;7.80;;;7.40;;
6207;SDS011;3137;51.550;7.060;2022-08-16T07:45:58;8.90;;;6.40;;
6207;SDS011;3137;51.550;7.060;2022-08-16T07:48:28;6.83;;;6.43;;
6207;SDS011;3137;51.550;7.060;2022-08-16T07:50:55;6.70;;;6.47;;
6207;SDS011;3137;51.550;7.060;2022-08-16T07:53:29;9.10;;;8.40;;
6207;SDS011;3137;51.550;7.060;2022-08-16T07:55:57;9.73;;;8.87;;
6207;SDS011;3137;51.550;7.060;2022-08-16T07:58:30;7.73;;;7.40;;
6207;SDS011;3137;51.550;7.060;2022-08-16T08:01:01;6.93;;;6.43;;
6207;SDS011;3137;51.550;7.060;2022-08-16T08:03:42;7.77;;;7.33;;
6207;SDS011;3137;51.550;7.060;2022-08-16T08:06:19;8.10;;;7.67;;
6207;SDS011;3137;51.550;7.060;2022-08-16T08:08:50;12.07;;;7.83;;
6207;SDS011;3137;51.550;7.060;2022-08-16T08:11:23;7.80;;;7.43;;
6207;SDS011;3137;51.550;7.060;2022-08-16T08:13:56;7.00;;;6.70;;
6207;SDS011;3137;51.550;7.060;2022-08-16T08:16:31;8.47;;;7.77;;
6207;SDS011;3137;51.550;7.060;2022-08-16T08:19:01;8.27;;;7.53;;
6207;SDS011;3137;51.550;7.060;2022-08-16T08:21:32;14.33;;;7.37;;
6207;SDS011;3137;51.550;7.060;2022-08-16T08:24:25;8.37;;;7.47;;
6207;SDS011;3137;51.550;7.060;2022-08-16T08:26:59;7.00;;;6.90;;
6207;SDS011;3137;51.550;7.060;2022-08-16T08:29:27;7.00;;;6.53;;
6207;SDS011;3137;51.550;7.060;2022-08-16T08:32:05;7.93;;;5.13;;
6207;SDS011;3137;51.550;7.060;2022-08-16T08:34:55;6.03;;;5.77;;
6207;SDS011;3137;51.550;7.060;2022-08-16T08:37:31;9.30;;;8.50;;
6207;SDS011;3137;51.550;7.060;2022-08-16T08:40:19;7.50;;;7.00;;
6207;SDS011;3137;51.550;7.060;2022-08-16T08:42:50;6.60;;;6.13;;
6207;SDS011;3137;51.550;7.060;2022-08-16T08:45:23;7.53;;;7.13;;
6207;SDS011;3137;51.550;7.060;2022-08-16T08:48:10;6.90;;;6.60;;
6207;SDS011;3137;51.550;7.060;2022-08-16T08:50:57;8.47;;;6.37;;
6207;SDS011;3137;51.550;7.060;2022-08-16T08:53:25;7.60;;;7.33;;
6207;SDS011;3137;51.550;7.060;2022-08-16T08:55:56;6.10;;;5.83;;
6207;SDS011;3137;51.550;7.060;2022-08-16T08:58:24;7.77;;;7.27;;
6207;SDS011;3137;51.550;7.060;2022-08-16T09:01:26;7.50;;;7.03;;
6207;SDS011;3137;51.550;7.060;2022-08-16T09:04:02;6.30;;;5.90;;
6207;SDS011;3137;51.550;7.060;2022-08-16T09:06:30;10.93;;;6.07;;
6207;SDS011;3137;51.550;7.060;2022-08-16T09:08:58;7.53;;;7.20;;
6207;SDS011;3137;51.550;7.060;2022-08-16T09:11:26;7.87;;;7.47;;
6207;SDS011;3137;51.550;7.060;2022-08-16T09:14:08;6.32;;;6.13;;
6207;SDS011;3137;51.550;7.060;2022-08-16T09:16:51;6.88;;;6.30;;
6207;SDS011;3137;51.550;7.060;2022-08-16T09:19:34;6.35;;;6.15;;
6207;SDS011;3137;51.550;7.060;2022-08-16T09:22:07;7.40;;;6.85;;
6207;SDS011;3137;51.550;7.060;2022-08-16T09:24:47;6.60;;;6.22;;
6207;SDS011;3137;51.550;7.060;2022-08-16T09:27:21;7.35;;;6.85;;
6207;SDS011;3137;51.550;7.060;2022-08-16T09:29:51;6.00;;;5.63;;
6207;SDS011;3137;51.550;7.060;2022-08-16T09:32:26;7.55;;;7.05;;
6207;SDS011;3137;51.550;7.060;2022-08-16T09:34:57;7.32;;;6.88;;
6207;SDS011;3137;51.550;7.060;2022-08-16T09:37:25;16.42;;;6.43;;
6207;SDS011;3137;51.550;7.060;2022-08-16T09:39:55;6.65;;;6.35;;
6207;SDS011;3137;51.550;7.060;2022-08-16T09:42:25;6.35;;;5.88;;
6207;SDS011;3137;51.550;7.060;2022-08-16T09:44:52;6.13;;;5.93;;
6207;SDS011;3137;51.550;7.060;2022-08-16T09:47:38;7.65;;;6.82;;
6207;SDS011;3137;51.550;7.060;2022-08-16T09:50:23;6.53;;;6.32;;
6207;SDS011;3137;51.550;7.060;2022-08-16T09:53:07;6.95;;;5.97;;
6207;SDS011;3137;51.550;7.060;2022-08-16T09:55:45;8.07;;;6.97;;
6207;SDS011;3137;51.550;7.060;2022-08-16T09:58:15;5.65;;;5.45;;
6207;SDS011;3137;51.550;7.060;2022-08-16T10:01:01;6.07;;;5.45;;
6207;SDS011;3137;51.550;7.060;2022-08-16T10:03:28;6.30;;;6.10;;
6207;SDS011;3137;51.550;7.060;2022-08-16T10:05:55;6.03;;;5.57;;
6207;SDS011;3137;51.550;7.060;2022-08-16T10:08:23;8.98;;;6.47;;
6207;SDS011;3137;51.550;7.060;2022-08-16T10:10:52;6.30;;;6.10;;
6207;SDS011;3137;51.550;7.060;2022-08-16T10:13:38;4.97;;;4.78;;
6207;SDS011;3137;51.550;7.060;2022-08-16T10:16:07;5.47;;;4.97;;
6207;SDS011;3137;51.550;7.060;2022-08-16T10:18:35;6.25;;;5.68;;
6207;SDS011;3137;51.550;7.060;2022-08-16T10:21:21;6.75;;;5.60;;
6207;SDS011;3137;51.550;7.060;2022-08-16T10:23:48;5.70;;;5.55;;
6207;SDS011;3137;51.550;7.060;2022-08-16T10:26:19;6.38;;;5.53;;
6207;SDS011;3137;51.550;7.060;2022-08-16T10:29:07;5.47;;;5.13;;
6207;SDS011;3137;51.550;7.060;2022-08-16T10:31:33;5.47;;;5.38;;
6207;SDS011;3137;51.550;7.060;2022-08-16T10:34:11;5.55;;;5.35;;
6207;SDS011;3137;51.550;7.060;2022-08-16T10:36:57;8.75;;;5.35;;
6207;SDS011;3137;51.550;7.060;2022-08-16T10:39:23;5.75;;;5.43;;
6207;SDS011;3137;51.550;7.060;2022-08-16T10:41:50;5.93;;;5.70;;
6207;SDS011;3137;51.550;7.060;2022-08-16T10:44:16;5.63;;;5.53;;
6207;SDS011;3137;51.550;7.060;2022-08-16T10:46:42;5.75;;;5.55;;
6207;SDS011;3137;51.550;7.060;2022-08-16T10:49:11;5.55;;;5.05;;
6207;SDS011;3137;51.550;7.060;2022-08-16T10:51:42;6.22;;;5.85;;
6207;SDS011;3137;51.550;7.060;2022-08-16T10:54:28;4.68;;;4.63;;
6207;SDS011;3137;51.550;7.060;2022-08-16T10:56:59;5.82;;;5.32;;
6207;SDS011;3137;51.550;7.060;2022-08-16T10:59:29;5.60;;;5.32;;
6207;SDS011;3137;51.550;7.060;2022-08-16T11:02:04;5.85;;;5.35;;
6207;SDS011;3137;51.550;7.060;2022-08-16T11:04:50;5.07;;;5.00;;
6207;SDS011;3137;51.550;7.060;2022-08-16T11:07:34;6.10;;;5.78;;
6207;SDS011;3137;51.550;7.060;2022-08-16T11:10:20;5.10;;;5.00;;
6207;SDS011;3137;51.550;7.060;2022-08-16T11:13:10;4.82;;;4.68;;
6207;SDS011;3137;51.550;7.060;2022-08-16T11:15:57;5.53;;;5.05;;
6207;SDS011;3137;51.550;7.060;2022-08-16T11:18:26;13.02;;;4.93;;
6207;SDS011;3137;51.550;7.060;2022-08-16T11:21:14;5.53;;;5.15;;
6207;SDS011;3137;51.550;7.060;2022-08-16T11:23:54;4.95;;;4.93;;
6207;SDS011;3137;51.550;7.060;2022-08-16T11:26:23;5.05;;;4.53;;
6207;SDS011;3137;51.550;7.060;2022-08-16T11:28:50;5.35;;;4.18;;
6207;SDS011;3137;51.550;7.060;2022-08-16T11:31:38;4.65;;;4.50;;
6207;SDS011;3137;51.550;7.060;2022-08-16T11:34:11;4.70;;;4.70;;
6207;SDS011;3137;51.550;7.060;2022-08-16T11:36:45;5.20;;;4.70;;
6207;SDS011;3137;51.550;7.060;2022-08-16T11:39:26;5.18;;;4.70;;
6207;SDS011;3137;51.550;7.060;2022-08-16T11:41:54;4.93;;;4.82;;
6207;SDS011;3137;51.550;7.060;2022-08-16T11:44:22;4.80;;;4.70;;
6207;SDS011;3137;51.550;7.060;2022-08-16T11:47:09;5.40;;;4.75;;
6207;SDS011;3137;51.550;7.060;2022-08-16T11:49:35;4.57;;;4.47;;
6207;SDS011;3137;51.550;7.060;2022-08-16T11:52:01;4.70;;;4.60;;
6207;SDS011;3137;51.550;7.060;2022-08-16T11:54:28;4.68;;;4.57;;
6207;SDS011;3137;51.550;7.060;2022-08-16T11:57:01;5.22;;;4.80;;
6207;SDS011;3137;51.550;7.060;2022-08-16T11:59:34;4.63;;;4.40;;
6207;SDS011;3137;51.550;7.060;2022-08-16T12:02:05;10.15;;;4.93;;
6207;SDS011;3137;51.550;7.060;2022-08-16T12:04:52;6.88;;;4.30;;
6207;SDS011;3137;51.550;7.060;2022-08-16T12:07:19;4.60;;;4.40;;
6207;SDS011;3137;51.550;7.060;2022-08-16T12:09:49;5.20;;;4.75;;
6207;SDS011;3137;51.550;7.060;2022-08-16T12:12:18;4.57;;;4.38;;
6207;SDS011;3137;51.550;7.060;2022-08-16T12:14:44;4.32;;;4.13;;
6207;SDS011;3137;51.550;7.060;2022-08-16T12:17:11;4.90;;;4.57;;
6207;SDS011;3137;51.550;7.060;2022-08-16T12:19:39;5.07;;;4.95;;
6207;SDS011;3137;51.550;7.060;2022-08-16T12:22:06;7.38;;;4.90;;
6207;SDS011;3137;51.550;7.060;2022-08-16T12:24:46;4.82;;;4.63;;
6207;SDS011;3137;51.550;7.060;2022-08-16T12:27:18;5.45;;;4.88;;
6207;SDS011;3137;51.550;7.060;2022-08-16T12:29:48;4.63;;;4.47;;
6207;SDS011;3137;51.550;7.060;2022-08-16T12:32:16;4.72;;;4.63;;
6207;SDS011;3137;51.550;7.060;2022-08-16T12:35:03;5.75;;;4.47;;
6207;SDS011;3137;51.550;7.060;2022-08-16T12:37:32;4.85;;;4.68;;
6207;SDS011;3137;51.550;7.060;2022-08-16T12:40:00;4.63;;;4.50;;
6207;SDS011;3137;51.550;7.060;2022-08-16T12:42:27;4.35;;;4.30;;
6207;SDS011;3137;51.550;7.060;2022-08-16T12:45:01;4.82;;;4.60;;
6207;SDS011;3137;51.550;7.060;2022-08-16T12:47:30;4.85;;;4.53;;
6207;SDS011;3137;51.550;7.060;2022-08-16T12:50:16;5.53;;;5.28;;
6207;SDS011;3137;51.550;7.060;2022-08-16T12:52:43;5.07;;;4.82;;
6207;SDS011;3137;51.550;7.060;2022-08-16T12:55:19;4.78;;;4.68;;
6207;SDS011;3137;51.550;7.060;2022-08-16T12:57:45;5.40;;;5.22;;
6207;SDS011;3137;51.550;7.060;2022-08-16T13:00:25;5.28;;;4.88;;
6207;SDS011;3137;51.550;7.060;2022-08-16T13:02:59;5.30;;;4.95;;
6207;SDS011;3137;51.550;7.060;2022-08-16T13:05:28;5.57;;;5.15;;
6207;SDS011;3137;51.550;7.060;2022-08-16T13:07:59;5.10;;;4.80;;
6207;SDS011;3137;51.550;7.060;2022-08-16T13:10:26;5.50;;;5.15;;
6207;SDS011;3137;51.550;7.060;2022-08-16T13:13:04;5.53;;;5.32;;
6207;SDS011;3137;51.550;7.060;2022-08-16T13:15:34;5.57;;;5.30;;
6207;SDS011;3137;51.550;7.060;2022-08-16T13:18:20;4.72;;;4.65;;
6207;SDS011;3137;51.550;7.060;2022-08-16T13:20:59;5.45;;;5.10;;
6207;SDS011;3137;51.550;7.060;2022-08-16T13:23:28;5.82;;;5.63;;
6207;SDS011;3137;51.550;7.060;2022-08-16T13:25:54;6.18;;;5.60;;
6207;SDS011;3137;51.550;7.060;2022-08-16T13:28:22;5.80;;;5.70;;
6207;SDS011;3137;51.550;7.060;2022-08-16T13:30:50;6.50;;;6.00;;
6207;SDS011;3137;51.550;7.060;2022-08-16T13:33:18;5.57;;;5.55;;
6207;SDS011;3137;51.550;7.060;2022-08-16T13:35:55;5.63;;;5.53;;
6207;SDS011;3137;51.550;7.060;2022-08-16T13:38:31;5.60;;;5.43;;
6207;SDS011;3137;51.550;7.060;2022-08-16T13:41:03;5.38;;;5.28;;
6207;SDS011;3137;51.550;7.060;2022-08-16T13:43:33;4.95;;;4.95;;
6207;SDS011;3137;51.550;7.060;2022-08-16T13:46:00;4.65;;;4.25;;
6207;SDS011;3137;51.550;7.060;2022-08-16T13:48:29;5.15;;;4.97;;
6207;SDS011;3137;51.550;7.060;2022-08-16T13:51:09;5.63;;;4.75;;
6207;SDS011;3137;51.550;7.060;2022-08-16T13:53:46;4.80;;;4.50;;
6207;SDS011;3137;51.550;7.060;2022-08-16T13:56:21;5.10;;;4.85;;
6207;SDS011;3137;51.550;7.060;2022-08-16T13:58:50;4.55;;;4.43;;
6207;SDS011;3137;51.550;7.060;2022-08-16T14:01:20;5.43;;;4.97;;
6207;SDS011;3137;51.550;7.060;2022-08-16T14:03:48;4.82;;;4.72;;
6207;SDS011;3137;51.550;7.060;2022-08-16T14:06:20;4.85;;;4.57;;
6207;SDS011;3137;51.550;7.060;2022-08-16T14:08:46;4.28;;;4.28;;
6207;SDS011;3137;51.550;7.060;2022-08-16T14:11:24;4.28;;;4.18;;
6207;SDS011;3137;51.550;7.060;2022-08-16T14:13:51;4.15;;;4.15;;
6207;SDS011;3137;51.550;7.060;2022-08-16T14:16:17;5.28;;;5.15;;
6207;SDS011;3137;51.550;7.060;2022-08-16T14:18:49;7.47;;;4.80;;
6207;SDS011;3137;51.550;7.060;2022-08-16T14:21:18;5.22;;;5.03;;
6207;SDS011;3137;51.550;7.060;2022-08-16T14:23:48;5.30;;;5.10;;
6207;SDS011;3137;51.550;7.060;2022-08-16T14:26:17;5.03;;;4.82;;
6207;SDS011;3137;51.550;7.060;2022-08-16T14:28:44;5.43;;;5.20;;
6207;SDS011;3137;51.550;7.060;2022-08-16T14:31:11;4.60;;;4.38;;
6207;SDS011;3137;51.550;7.060;2022-08-16T14:33:40;8.38;;;4.53;;
6207;SDS011;3137;51.550;7.060;2022-08-16T14:36:06;5.38;;;4.75;;
6207;SDS011;3137;51.550;7.060;2022-08-16T14:38:33;4.88;;;4.72;;
6207;SDS011;3137;51.550;7.060;2022-08-16T14:41:04;4.90;;;4.45;;
6207;SDS011;3137;51.550;7.060;2022-08-16T14:43:35;4.47;;;4.28;;
6207;SDS011;3137;51.550;7.060;2022-08-16T14:46:01;10.23;;;5.63;;
6207;SDS011;3137;51.550;7.060;2022-08-16T14:48:32;6.53;;;4.90;;
6207;SDS011;3137;51.550;7.060;2022-08-16T14:50:59;5.10;;;4.90;;
6207;SDS011;3137;51.550;7.060;2022-08-16T14:53:26;6.43;;;5.35;;
6207;SDS011;3137;51.550;7.060;2022-08-16T14:55:53;10.25;;;4.85;;
6207;SDS011;3137;51.550;7.060;2022-08-16T14:58:20;4.72;;;4.72;;
6207;SDS011;3137;51.550;7.060;2022-08-16T15:01:03;5.38;;;5.18;;
6207;SDS011;3137;51.550;7.060;2022-08-16T15:03:31;4.70;;;4.60;;
6207;SDS011;3137;51.550;7.060;2022-08-16T15:05:58;5.07;;;4.97;;
6207;SDS011;3137;51.550;7.060;2022-08-16T15:08:26;4.70;;;4.60;;
6207;SDS011;3137;51.550;7.060;2022-08-16T15:11:02;5.45;;;5.00;;
6207;SDS011;3137;51.550;7.060;2022-08-16T15:13:29;5.30;;;5.10;;
6207;SDS011;3137;51.550;7.060;2022-08-16T15:15:56;5.00;;;4.82;;
6207;SDS011;3137;51.550;7.060;2022-08-16T15:18:28;5.28;;;5.05;;
6207;SDS011;3137;51.550;7.060;2022-08-16T15:20:57;4.97;;;4.70;;
6207;SDS011;3137;51.550;7.060;2022-08-16T15:23:24;5.78;;;5.50;;
6207;SDS011;3137;51.550;7.060;2022-08-16T15:25:50;4.65;;;4.55;;
6207;SDS011;3137;51.550;7.060;2022-08-16T15:28:29;6.32;;;5.07;;
6207;SDS011;3137;51.550;7.060;2022-08-16T15:30:58;4.88;;;4.78;;
6207;SDS011;3137;51.550;7.060;2022-08-16T15:33:30;6.57;;;5.95;;
6207;SDS011;3137;51.550;7.060;2022-08-16T15:35:57;4.90;;;4.78;;
6207;SDS011;3137;51.550;7.060;2022-08-16T15:38:25;4.88;;;4.78;;
6207;SDS011;3137;51.550;7.060;2022-08-16T15:41:26;4.53;;;4.53;;
6207;SDS011;3137;51.550;7.060;2022-08-16T15:43:53;11.65;;;4.45;;
6207;SDS011;3137;51.550;7.060;2022-08-16T15:46:36;4.63;;;4.63;;
6207;SDS011;3137;51.550;7.060;2022-08-16T15:49:22;5.38;;;4.70;;
6207;SDS011;3137;51.550;7.060;2022-08-16T15:52:15;4.97;;;4.80;;
6207;SDS011;3137;51.550;7.060;2022-08-16T15:54:43;4.97;;;4.88;;
6207;SDS011;3137;51.550;7.060;2022-08-16T15:57:21;6.25;;;5.03;;
6207;SDS011;3137;51.550;7.060;2022-08-16T15:59:48;4.47;;;4.38;;
6207;SDS011;3137;51.550;7.060;2022-08-16T16:02:21;8.68;;;4.93;;